createdAt,value
2022-12-04T00:00:03.209Z,937.70
2022-12-04T00:05:03.448Z,937.80
2022-12-04T00:10:03.126Z,937.82
2022-12-04T00:20:03.281Z,938.02
2022-12-04T00:25:03.109Z,938.13
2022-12-04T00:30:03.321Z,938.10
2022-12-04T00:35:03.244Z,938.08
2022-12-04T00:40:03.287Z,938.15
2022-12-04T00:45:03.136Z,938.10
2022-12-04T00:50:03.199Z,938.04
2022-12-04T00:55:03.231Z,938.10
2022-12-04T01:00:04.379Z,938.17
2022-12-04T01:05:03.234Z,938.10
2022-12-04T01:10:03.238Z,937.98
2022-12-04T01:15:03.112Z,937.94
2022-12-04T01:20:03.222Z,937.96
2022-12-04T01:25:03.183Z,937.94
2022-12-04T01:30:03.443Z,937.88
2022-12-04T01:35:03.201Z,937.80
2022-12-04T01:40:03.128Z,937.74
2022-12-04T01:45:03.088Z,937.82
2022-12-04T01:50:03.200Z,937.88
2022-12-04T01:55:03.168Z,937.90
2022-12-04T02:00:03.401Z,937.88
2022-12-04T02:05:04.283Z,937.96
2022-12-04T02:10:03.164Z,938.04
2022-12-04T02:15:03.104Z,938.02
2022-12-04T02:20:03.127Z,937.98
2022-12-04T02:25:03.141Z,937.94
2022-12-04T02:30:03.270Z,938.02
2022-12-04T02:35:03.328Z,938.21
2022-12-04T02:40:03.374Z,938.21
2022-12-04T02:45:03.192Z,938.19
2022-12-04T02:50:03.180Z,938.21
2022-12-04T02:55:08.114Z,938.13
2022-12-04T03:00:03.504Z,938.04
2022-12-04T03:05:03.315Z,937.98
2022-12-04T03:10:03.104Z,938.02
2022-12-04T03:15:03.121Z,938.04
2022-12-04T03:20:03.343Z,937.86
2022-12-04T03:25:04.206Z,937.64
2022-12-04T03:30:03.378Z,937.62
2022-12-04T03:35:03.192Z,937.66
2022-12-04T03:40:03.064Z,937.62
2022-12-04T03:45:03.115Z,937.57
2022-12-04T03:50:03.317Z,937.49
2022-12-04T03:55:03.131Z,937.47
2022-12-04T04:00:03.694Z,937.39
2022-12-04T04:05:03.164Z,937.43
2022-12-04T04:10:21.084Z,937.41
2022-12-04T04:15:04.429Z,937.37
2022-12-04T04:20:03.204Z,937.35
2022-12-04T04:25:03.278Z,937.37
2022-12-04T04:30:03.540Z,937.41
2022-12-04T04:35:03.246Z,937.41
2022-12-04T04:40:04.088Z,937.45
2022-12-04T04:45:03.050Z,937.57
2022-12-04T04:50:03.210Z,937.59
2022-12-04T04:55:03.199Z,937.55
2022-12-04T16:05:03.284Z,937.57
2022-12-04T16:10:04.326Z,937.39
2022-12-04T16:15:02.993Z,937.35
2022-12-04T16:20:03.155Z,937.37
2022-12-04T16:25:03.130Z,937.39
2022-12-04T16:30:03.265Z,937.39
2022-12-04T16:35:03.198Z,937.29
2022-12-04T16:40:03.348Z,937.09
2022-12-04T16:45:03.000Z,937.00
2022-12-04T16:50:09.659Z,936.92
2022-12-04T16:55:05.080Z,936.82
2022-12-04T17:00:03.279Z,936.72
2022-12-04T17:05:03.691Z,936.60
2022-12-04T17:10:04.497Z,936.66
2022-12-04T17:15:03.103Z,936.58
2022-12-04T17:20:03.255Z,936.66
2022-12-04T17:25:04.355Z,936.58
2022-12-04T17:30:03.491Z,936.47
2022-12-04T17:35:03.284Z,936.37
2022-12-04T17:40:03.332Z,936.27
2022-12-04T17:45:03.122Z,936.15
2022-12-04T17:50:03.227Z,936.13
2022-12-04T17:55:03.157Z,936.23
2022-12-04T18:00:04.260Z,936.31
2022-12-04T18:05:03.440Z,936.35
2022-12-04T18:10:03.253Z,936.21
2022-12-04T18:15:03.316Z,936.09
2022-12-04T18:20:05.502Z,936.05
2022-12-04T18:25:03.114Z,936.03
2022-12-04T18:30:03.335Z,935.92
2022-12-04T18:35:03.216Z,935.70
2022-12-04T18:40:08.756Z,935.64
2022-12-04T18:45:03.416Z,935.66
2022-12-04T18:50:03.384Z,935.62
2022-12-04T18:55:03.246Z,935.53
2022-12-04T19:00:04.292Z,935.43
2022-12-04T19:05:03.412Z,935.33
2022-12-04T19:10:11.363Z,935.27
2022-12-04T19:15:03.321Z,935.29
2022-12-04T19:20:03.504Z,935.23
2022-12-04T19:25:03.591Z,935.19
2022-12-04T19:30:03.526Z,935.21
2022-12-04T19:35:04.567Z,935.13
2022-12-04T19:40:03.307Z,935.15
2022-12-04T19:45:03.345Z,935.05
2022-12-04T19:50:03.320Z,935.07
2022-12-04T19:55:03.235Z,935.15
2022-12-04T20:00:03.647Z,935.09
2022-12-04T20:05:04.323Z,935.15
2022-12-04T20:10:03.547Z,935.07
2022-12-04T20:15:03.352Z,935.03
2022-12-04T20:20:03.168Z,935.05
2022-12-04T20:25:03.226Z,935.07
2022-12-04T20:30:03.422Z,935.00
2022-12-04T20:35:03.369Z,935.07
2022-12-04T20:40:03.251Z,935.21
2022-12-04T20:45:03.156Z,935.15
2022-12-04T20:50:03.141Z,935.17
2022-12-04T20:55:03.248Z,935.17
2022-12-04T21:00:03.366Z,935.19
2022-12-04T21:05:03.290Z,935.29
2022-12-04T21:10:04.883Z,935.35
2022-12-04T21:15:03.263Z,935.37
2022-12-04T21:20:07.575Z,935.56
2022-12-04T21:25:03.164Z,935.72
2022-12-04T21:30:03.413Z,936.05
2022-12-04T21:35:03.194Z,936.03
2022-12-04T21:40:03.250Z,936.03
2022-12-04T21:45:03.085Z,936.03
2022-12-04T21:50:03.322Z,936.19
2022-12-04T21:55:04.185Z,936.43
2022-12-04T22:00:03.545Z,936.47
2022-12-04T22:05:03.193Z,936.35
2022-12-04T22:10:08.797Z,936.47
2022-12-04T22:15:03.071Z,936.58
2022-12-04T22:20:03.211Z,936.76
2022-12-04T22:25:03.207Z,936.82
2022-12-04T22:30:03.581Z,936.86
2022-12-04T22:35:03.230Z,936.92
2022-12-04T22:40:03.116Z,936.80
2022-12-04T22:45:03.128Z,936.70
2022-12-04T22:50:03.187Z,936.58
2022-12-04T22:55:03.142Z,936.53
2022-12-04T23:00:03.547Z,936.58
2022-12-04T23:05:03.248Z,936.80
2022-12-04T23:10:03.380Z,936.96
2022-12-04T23:15:03.120Z,936.94
2022-12-04T23:20:03.336Z,936.94
2022-12-04T23:25:03.130Z,936.96
2022-12-04T23:30:03.724Z,936.88
2022-12-04T23:35:03.168Z,936.98
2022-12-04T23:40:03.331Z,937.15
2022-12-04T23:45:03.073Z,937.37
2022-12-04T23:50:03.316Z,937.53
2022-12-04T23:55:03.297Z,937.47
